createdAt,value
2017-09-21T00:00:26.468Z,101135.83
2017-09-21T00:01:32.491Z,101137.97
2017-09-21T00:02:38.426Z,101136.47
2017-09-21T00:03:44.518Z,101131.47
2017-09-21T00:04:50.602Z,101135.86
2017-09-21T00:05:56.539Z,101137.30
2017-09-21T00:07:02.791Z,101142.86
2017-09-21T00:08:08.719Z,101139.88
2017-09-21T00:09:15.042Z,101142.02
2017-09-21T00:10:22.135Z,101142.27
2017-09-21T00:11:28.003Z,101139.86
2017-09-21T00:12:34.260Z,101139.77
2017-09-21T00:13:40.451Z,101138.19
2017-09-21T00:14:46.622Z,101138.41
2017-09-21T00:15:53.647Z,101140.02
2017-09-21T00:16:59.894Z,101134.31
2017-09-21T00:18:06.020Z,101134.42
2017-09-21T00:19:12.223Z,101129.69
2017-09-21T00:20:18.424Z,101133.52
2017-09-21T00:21:25.154Z,101132.12
2017-09-21T00:22:31.319Z,101139.45
2017-09-21T00:23:37.979Z,101131.83
2017-09-21T00:24:44.147Z,101137.27
2017-09-21T00:25:50.414Z,101140.95
2017-09-21T00:26:56.565Z,101137.14
2017-09-21T00:28:02.701Z,101136.55
2017-09-21T00:29:09.653Z,101136.15
2017-09-21T00:30:16.932Z,101137.88
2017-09-21T00:31:23.409Z,101132.75
2017-09-21T00:32:29.479Z,101136.67
2017-09-21T00:33:36.454Z,101139.64
2017-09-21T00:34:42.635Z,101134.71
2017-09-21T00:35:49.349Z,101139.08
2017-09-21T00:36:55.564Z,101136.60
2017-09-21T00:38:01.642Z,101135.81
2017-09-21T00:39:08.386Z,101140.95
2017-09-21T00:40:14.625Z,101137.97
2017-09-21T00:41:20.398Z,101134.08
2017-09-21T00:42:26.426Z,101140.67
2017-09-21T00:43:32.199Z,101138.13
2017-09-21T00:44:38.535Z,101139.86
2017-09-21T00:45:46.462Z,101137.58
2017-09-21T00:46:52.545Z,101141.23
2017-09-21T00:47:58.718Z,101139.38
2017-09-21T00:49:04.851Z,101138.86
2017-09-21T00:50:10.538Z,101137.03
2017-09-21T00:51:16.237Z,101134.52
2017-09-21T00:52:22.412Z,101136.45
2017-09-21T00:53:28.479Z,101139.19
2017-09-21T00:54:34.295Z,101136.91
2017-09-21T00:55:39.747Z,101133.67
2017-09-21T00:56:45.903Z,101135.72
2017-09-21T00:57:52.078Z,101130.82
2017-09-21T00:58:58.155Z,101138.22
2017-09-21T01:00:04.255Z,101135.27
2017-09-21T01:01:10.940Z,101131.70
2017-09-21T02:16:54.866Z,101148.53
2017-09-21T02:18:00.873Z,101145.91
2017-09-21T02:19:07.137Z,101140.73
2017-09-21T02:20:13.071Z,101142.52
2017-09-21T02:21:18.971Z,101143.73
2017-09-21T02:22:25.199Z,101141.28
2017-09-21T02:23:31.362Z,101137.28
2017-09-21T02:24:38.114Z,101136.45
2017-09-21T02:25:44.317Z,101135.97
2017-09-21T02:26:50.283Z,101137.80
2017-09-21T02:27:56.864Z,101137.28
2017-09-21T02:29:03.156Z,101135.97
2017-09-21T02:30:09.382Z,101134.20
2017-09-21T02:31:15.646Z,101136.91
2017-09-21T02:32:22.471Z,101140.86
2017-09-21T02:33:29.270Z,101141.71
2017-09-21T02:34:35.502Z,101143.85
2017-09-21T02:35:41.703Z,101149.86
2017-09-21T02:36:47.947Z,101144.42
2017-09-21T02:37:54.180Z,101150.17
2017-09-21T02:39:00.332Z,101137.23
2017-09-21T02:40:06.337Z,101141.13
2017-09-21T02:41:12.483Z,101139.02
2017-09-21T02:42:18.759Z,101139.73
2017-09-21T02:43:25.609Z,101135.07
2017-09-21T02:44:32.571Z,101130.36
2017-09-21T02:45:39.877Z,101135.32
2017-09-21T02:46:45.786Z,101132.05
2017-09-21T02:47:51.877Z,101135.20
2017-09-21T02:48:58.527Z,101128.66
2017-09-21T02:50:04.947Z,101128.17
2017-09-21T02:51:11.103Z,101131.34
2017-09-21T02:52:17.360Z,101123.48
2017-09-21T02:53:23.517Z,101121.27
2017-09-21T02:54:29.758Z,101129.08
2017-09-21T02:55:35.972Z,101120.84
2017-09-21T02:56:42.206Z,101124.77
2017-09-21T02:57:49.319Z,101123.12
2017-09-21T02:58:55.846Z,101130.25
2017-09-21T03:00:01.986Z,101124.77
2017-09-21T03:01:08.487Z,101126.41
2017-09-21T03:02:15.557Z,101127.92
2017-09-21T03:03:21.766Z,101126.88
2017-09-21T03:04:27.974Z,101121.50
2017-09-21T03:05:34.275Z,101126.88
2017-09-21T03:06:40.586Z,101131.59
2017-09-21T03:07:46.835Z,101135.66
2017-09-21T03:08:53.190Z,101138.75
2017-09-21T03:09:59.358Z,101134.80
2017-09-21T03:11:05.643Z,101130.88
2017-09-21T03:12:12.203Z,101134.34
2017-09-21T03:13:18.355Z,101130.10
2017-09-21T03:14:24.523Z,101136.27
2017-09-21T03:15:31.284Z,101132.30
2017-09-21T03:16:37.538Z,101130.14
2017-09-21T03:17:43.741Z,101126.29
2017-09-21T03:18:49.931Z,101123.59
2017-09-21T03:19:56.134Z,101118.09
2017-09-21T03:21:02.445Z,101120.41
2017-09-21T03:22:08.634Z,101115.97
2017-09-21T03:23:14.799Z,101112.55
2017-09-21T03:24:21.122Z,101111.59
2017-09-21T03:25:27.994Z,101107.74
2017-09-21T03:26:34.487Z,101109.84
2017-09-21T03:27:40.675Z,101111.75
2017-09-21T03:28:46.840Z,101108.71
2017-09-21T03:29:53.092Z,101114.06
2017-09-21T03:30:59.286Z,101108.44
2017-09-21T03:32:05.567Z,101107.94
2017-09-21T03:33:11.907Z,101110.03
2017-09-21T03:34:18.102Z,101105.04
2017-09-21T03:35:24.295Z,101107.70
2017-09-21T03:36:30.638Z,101108.78
2017-09-21T03:37:37.339Z,101110.80
2017-09-21T03:38:43.567Z,101108.81
2017-09-21T03:39:50.269Z,101102.92
2017-09-21T03:40:56.563Z,101104.63
2017-09-21T03:42:03.295Z,101111.77
2017-09-21T03:43:09.735Z,101110.38
2017-09-21T03:44:17.986Z,101109.72
2017-09-21T03:45:24.138Z,101102.88
2017-09-21T03:46:31.045Z,101105.38
2017-09-21T03:47:37.178Z,101105.73
2017-09-21T03:48:43.399Z,101115.89
2017-09-21T03:49:49.626Z,101106.84
2017-09-21T03:50:55.985Z,101111.45
2017-09-21T03:52:02.508Z,101112.27
2017-09-21T03:53:08.802Z,101115.34
2017-09-21T03:54:15.020Z,101111.39
2017-09-21T03:55:21.765Z,101111.81
2017-09-21T03:56:28.450Z,101111.98
2017-09-21T03:57:35.307Z,101111.95
2017-09-21T03:58:41.586Z,101117.27
2017-09-21T03:59:47.812Z,101118.87
2017-09-21T04:00:54.108Z,101120.81
2017-09-21T04:02:00.315Z,101115.63
2017-09-21T04:03:06.543Z,101110.56
2017-09-21T04:04:12.707Z,101113.00
2017-09-21T04:05:19.048Z,101106.23
2017-09-21T04:06:25.811Z,101107.16
2017-09-21T04:07:31.818Z,101109.44
2017-09-21T04:08:37.920Z,101114.95
2017-09-21T04:09:43.879Z,101105.58
2017-09-21T04:10:50.194Z,101106.56
2017-09-21T04:11:56.199Z,101108.34
2017-09-21T04:13:03.145Z,101109.77
2017-09-21T04:14:09.663Z,101103.20
2017-09-21T04:15:15.844Z,101108.19
2017-09-21T04:16:21.988Z,101104.45
2017-09-21T04:17:27.983Z,101107.23
2017-09-21T04:18:34.716Z,101105.20
2017-09-21T04:19:40.678Z,101097.08
2017-09-21T04:20:47.323Z,101102.80
2017-09-21T04:21:53.275Z,101108.89
2017-09-21T04:22:59.458Z,101105.56
2017-09-21T04:24:05.648Z,101106.56
2017-09-21T04:25:12.066Z,101108.98
2017-09-21T04:26:19.108Z,101114.39
2017-09-21T04:27:25.981Z,101109.66
2017-09-21T04:28:32.038Z,101110.34
2017-09-21T04:29:38.307Z,101114.59
2017-09-21T04:30:45.305Z,101107.94
2017-09-21T04:31:51.676Z,101108.59
2017-09-21T04:32:58.089Z,101106.05
2017-09-21T04:34:05.221Z,101102.52
2017-09-21T04:35:11.761Z,101110.03
2017-09-21T04:36:18.604Z,101113.25
2017-09-21T04:37:25.228Z,101113.30
2017-09-21T04:38:32.163Z,101109.14
2017-09-21T04:39:39.741Z,101108.20
2017-09-21T04:42:48.349Z,101114.30
2017-09-21T04:43:55.276Z,101122.11
2017-09-21T04:45:02.529Z,101114.98
2017-09-21T04:46:08.620Z,101114.11
2017-09-21T04:47:15.736Z,101117.07
2017-09-21T04:48:22.734Z,101110.88
2017-09-21T04:49:29.986Z,101112.38
2017-09-21T04:50:37.274Z,101111.06
2017-09-21T04:51:46.364Z,101111.42
2017-09-21T04:52:55.269Z,101106.94
2017-09-21T04:54:03.446Z,101108.89
2017-09-21T04:55:12.250Z,101112.63
2017-09-21T04:56:21.172Z,101113.19
2017-09-21T04:57:29.234Z,101122.28
2017-09-21T04:58:39.102Z,101116.45
2017-09-21T04:59:48.158Z,101124.55
2017-09-21T05:00:56.253Z,101120.61
2017-09-21T05:02:04.104Z,101123.91
2017-09-21T05:03:11.181Z,101114.14
2017-09-21T05:04:18.619Z,101119.88
2017-09-21T05:05:26.198Z,101120.10
2017-09-21T05:06:33.659Z,101122.26
2017-09-21T05:07:41.578Z,101116.64
2017-09-21T05:08:50.308Z,101124.15
2017-09-21T05:10:00.112Z,101119.59
2017-09-21T05:11:08.508Z,101122.91
2017-09-21T05:12:16.336Z,101126.66
2017-09-21T05:13:24.240Z,101124.45
2017-09-21T05:14:33.403Z,101127.06
2017-09-21T05:15:42.231Z,101124.28
2017-09-21T05:16:52.382Z,101122.66
2017-09-21T05:18:01.269Z,101127.36
2017-09-21T05:19:09.680Z,101128.06
2017-09-21T05:20:19.304Z,101125.56
2017-09-21T05:21:28.114Z,101133.00
2017-09-21T05:22:36.255Z,101122.52
2017-09-21T05:23:45.231Z,101127.53
2017-09-21T05:24:54.225Z,101124.47
2017-09-21T05:26:05.356Z,101119.56
2017-09-21T05:27:14.103Z,101121.03
2017-09-21T05:28:23.226Z,101119.98
2017-09-21T05:29:32.169Z,101124.72
2017-09-21T05:30:40.437Z,101121.41
2017-09-21T05:31:49.471Z,101123.00
2017-09-21T05:32:58.175Z,101128.12
2017-09-21T05:34:06.332Z,101124.42
2017-09-21T05:35:16.272Z,101126.72
2017-09-21T05:36:26.186Z,101129.23
2017-09-21T05:37:34.186Z,101126.22
2017-09-21T05:38:43.127Z,101127.69
2017-09-21T05:39:51.099Z,101131.87
2017-09-21T05:41:00.262Z,101128.04
2017-09-21T05:42:10.316Z,101129.59
2017-09-21T05:43:20.283Z,101131.30
2017-09-21T05:44:31.326Z,101129.78
2017-09-21T05:45:43.361Z,101135.33
2017-09-21T05:46:54.240Z,101132.84
2017-09-21T05:48:04.141Z,101130.86
2017-09-21T05:49:43.656Z,101134.52
2017-09-21T05:53:04.339Z,101135.59
2017-09-21T05:54:31.231Z,101137.94
2017-09-21T05:56:06.184Z,101135.71
2017-09-21T05:57:43.240Z,101140.19
2017-09-21T05:59:18.201Z,101136.62
2017-09-21T06:01:04.278Z,101138.30
2017-09-21T06:02:35.085Z,101130.38
2017-09-21T06:04:11.127Z,101136.02
2017-09-21T06:05:41.117Z,101132.36
2017-09-21T06:07:22.479Z,101138.75
2017-09-21T06:08:52.176Z,101140.25
2017-09-21T06:10:14.380Z,101134.75
2017-09-21T06:12:02.388Z,101133.98
2017-09-21T06:13:22.116Z,101132.03
2017-09-21T06:15:00.120Z,101132.27
2017-09-21T06:16:16.918Z,101131.45
2017-09-21T06:18:01.232Z,101132.45
2017-09-21T06:19:36.474Z,101130.62
2017-09-21T06:20:52.904Z,101135.19
2017-09-21T06:23:31.164Z,101137.95
2017-09-21T06:25:05.128Z,101136.26
2017-09-21T06:26:45.308Z,101139.13
2017-09-21T06:29:41.085Z,101142.48
2017-09-21T06:31:11.296Z,101143.27
2017-09-21T06:32:38.150Z,101140.96
2017-09-21T06:34:20.417Z,101141.02
2017-09-21T06:35:50.210Z,101140.31
2017-09-21T06:37:24.170Z,101138.00
2017-09-21T06:38:38.498Z,101141.62
2017-09-21T06:40:38.753Z,101141.72
2017-09-21T06:42:09.277Z,101138.59
2017-09-21T06:43:35.128Z,101143.98
2017-09-21T06:45:03.235Z,101148.44
2017-09-21T06:46:27.029Z,101150.98
2017-09-21T06:47:53.012Z,101149.84
2017-09-21T06:49:21.159Z,101152.60
2017-09-21T06:52:04.335Z,101149.22
2017-09-21T06:53:30.420Z,101149.59
2017-09-21T06:54:50.475Z,101147.31
2017-09-21T06:56:11.227Z,101150.91
2017-09-21T06:57:50.120Z,101154.66
2017-09-21T07:02:16.238Z,101151.35
2017-09-21T07:03:39.349Z,101149.69
2017-09-21T07:05:10.110Z,101146.96
2017-09-21T07:06:43.116Z,101146.36
2017-09-21T07:08:07.115Z,101147.45
2017-09-21T07:09:40.200Z,101146.94
2017-09-21T07:10:58.086Z,101145.89
2017-09-21T07:12:15.116Z,101151.64
2017-09-21T07:13:48.245Z,101150.89
2017-09-21T07:15:09.167Z,101152.45
2017-09-21T07:16:36.999Z,101158.05
2017-09-21T07:18:12.119Z,101153.93
2017-09-21T07:19:43.864Z,101156.52
2017-09-21T07:21:17.376Z,101158.81
2017-09-21T07:24:16.235Z,101173.00
2017-09-21T07:26:00.179Z,101171.72
2017-09-21T07:27:29.101Z,101173.22
2017-09-21T07:31:48.627Z,101183.17
2017-09-21T07:33:04.332Z,101176.58
2017-09-21T07:36:39.788Z,101176.66
2017-09-21T07:38:14.195Z,101178.79
2017-09-21T07:39:25.990Z,101177.88
2017-09-21T07:40:38.268Z,101179.31
2017-09-21T07:42:06.186Z,101181.58
2017-09-21T07:45:03.301Z,101186.05
2017-09-21T07:46:50.887Z,101182.84
2017-09-21T07:48:26.471Z,101180.41
2017-09-21T07:49:38.977Z,101189.16
2017-09-21T07:50:58.919Z,101185.59
2017-09-21T07:52:28.957Z,101183.34
2017-09-21T07:53:50.869Z,101190.11
2017-09-21T07:55:19.822Z,101187.23
2017-09-21T07:56:47.824Z,101188.43
2017-09-21T07:58:15.774Z,101189.13
2017-09-21T07:59:44.990Z,101188.31
2017-09-21T08:01:03.939Z,101191.66
2017-09-21T08:02:19.819Z,101185.14
2017-09-21T08:06:35.965Z,101191.94
2017-09-21T08:07:56.816Z,101186.89
2017-09-21T08:09:27.929Z,101186.52
2017-09-21T08:10:49.896Z,101188.81
2017-09-21T08:12:09.964Z,101187.09
2017-09-21T08:13:30.872Z,101184.12
2017-09-21T08:14:57.769Z,101182.70
2017-09-21T08:16:25.089Z,101179.84
2017-09-21T08:17:53.309Z,101183.45
2017-09-21T08:19:19.233Z,101184.77
2017-09-21T08:20:45.871Z,101183.15
2017-09-21T08:22:13.786Z,101191.36
2017-09-21T08:23:37.882Z,101182.87
2017-09-21T08:24:51.094Z,101186.28
2017-09-21T08:28:06.064Z,101186.84
2017-09-21T08:29:28.068Z,101187.98
2017-09-21T08:30:55.249Z,101181.73
2017-09-21T08:32:35.115Z,101183.48
2017-09-21T08:33:49.153Z,101180.84
2017-09-21T08:35:05.146Z,101183.53
2017-09-21T08:36:27.059Z,101183.02
2017-09-21T08:37:50.183Z,101189.05
2017-09-21T08:39:09.868Z,101190.97
2017-09-21T08:40:34.047Z,101189.80
2017-09-21T08:41:50.834Z,101191.38
2017-09-21T08:43:06.854Z,101185.95
2017-09-21T08:46:02.943Z,101181.37
2017-09-21T08:47:35.950Z,101180.38
2017-09-21T08:48:52.769Z,101176.17
2017-09-21T08:50:05.908Z,101169.88
2017-09-21T08:51:35.592Z,101172.53
2017-09-21T08:52:45.179Z,101180.33
2017-09-21T08:54:44.366Z,101181.28
2017-09-21T08:56:07.960Z,101173.31
2017-09-21T08:57:39.211Z,101175.42
2017-09-21T08:59:09.915Z,101181.41
2017-09-21T09:00:49.009Z,101180.52
2017-09-21T09:03:33.106Z,101176.44
2017-09-21T09:04:41.823Z,101180.83
2017-09-21T09:07:34.619Z,101181.41
2017-09-21T09:08:41.689Z,101181.41
2017-09-21T09:09:49.912Z,101177.33
2017-09-21T09:14:11.927Z,101174.01
2017-09-21T09:15:42.099Z,101172.45
2017-09-21T09:16:50.917Z,101180.45
2017-09-21T09:20:02.924Z,101171.09
2017-09-21T09:22:50.056Z,101188.63
2017-09-21T09:24:28.625Z,101186.36
2017-09-21T09:29:52.016Z,101179.37
2017-09-21T09:31:22.747Z,101184.70
2017-09-21T09:32:43.559Z,101181.53
2017-09-21T09:34:05.598Z,101178.59
2017-09-21T09:36:57.702Z,101177.53
2017-09-21T09:38:37.620Z,101172.39
2017-09-21T09:40:23.788Z,101176.97
2017-09-21T09:41:54.529Z,101174.95
2017-09-21T09:43:28.723Z,101175.18
2017-09-21T09:46:14.866Z,101164.92
2017-09-21T09:47:29.962Z,101163.40
2017-09-21T09:49:16.546Z,101158.29
2017-09-21T09:50:51.631Z,101164.28
2017-09-21T09:52:20.855Z,101154.47
2017-09-21T09:53:48.572Z,101158.00
2017-09-21T09:59:04.817Z,101157.98
2017-09-21T10:00:34.699Z,101152.94
2017-09-21T10:02:03.255Z,101156.37
2017-09-21T10:12:34.355Z,101137.03
2017-09-21T10:14:03.908Z,101136.13
2017-09-21T10:15:42.795Z,101138.91
2017-09-21T10:17:15.496Z,101138.05
2017-09-21T10:18:25.883Z,101134.22
2017-09-21T10:22:08.509Z,101133.79
2017-09-21T10:23:43.007Z,101129.76
2017-09-21T10:26:46.697Z,101133.59
2017-09-21T10:28:14.592Z,101133.09
2017-09-21T10:29:24.787Z,101129.63
2017-09-21T10:30:50.614Z,101133.56
2017-09-21T10:32:11.980Z,101129.16
2017-09-21T10:33:42.627Z,101134.44
2017-09-21T10:35:12.511Z,101126.78
2017-09-21T10:36:39.631Z,101131.03
2017-09-21T10:38:13.502Z,101129.84
2017-09-21T10:40:03.800Z,101127.80
2017-09-21T10:41:24.863Z,101125.83
2017-09-21T10:44:17.594Z,101129.91
2017-09-21T10:47:28.918Z,101127.66
2017-09-21T10:49:13.791Z,101120.89
2017-09-21T10:50:30.885Z,101120.25
2017-09-21T10:52:06.979Z,101121.97
2017-09-21T10:53:20.863Z,101116.20
2017-09-21T10:54:39.563Z,101124.14
2017-09-21T11:00:08.744Z,101120.59
2017-09-21T11:01:14.839Z,101118.56
2017-09-21T11:02:21.170Z,101120.71
2017-09-21T11:03:48.981Z,101120.88
2017-09-21T11:05:31.826Z,101123.92
2017-09-21T11:06:49.499Z,101126.07
2017-09-21T11:08:08.860Z,101123.52
2017-09-21T11:09:25.347Z,101124.69
2017-09-21T11:10:32.478Z,101129.58
2017-09-21T11:11:39.060Z,101122.14
2017-09-21T11:12:45.439Z,101125.56
2017-09-21T11:13:51.765Z,101120.45
2017-09-21T11:14:57.883Z,101120.88
2017-09-21T11:16:04.118Z,101125.37
2017-09-21T11:17:11.436Z,101122.05
2017-09-21T11:18:17.685Z,101121.19
2017-09-21T11:19:23.938Z,101118.60
2017-09-21T11:20:30.156Z,101121.38
2017-09-21T11:21:36.452Z,101120.24
2017-09-21T11:22:42.873Z,101116.91
2017-09-21T11:23:49.279Z,101111.76
2017-09-21T11:24:55.396Z,101115.20
2017-09-21T11:26:01.692Z,101111.25
2017-09-21T11:27:07.660Z,101109.54
2017-09-21T11:28:13.982Z,101111.67
2017-09-21T11:29:20.684Z,101111.87
2017-09-21T11:30:36.704Z,101112.16
2017-09-21T11:31:55.947Z,101107.48
2017-09-21T11:33:17.896Z,101110.67
2017-09-21T11:34:37.901Z,101106.80
2017-09-21T11:35:51.734Z,101103.88
2017-09-21T11:37:00.674Z,101104.91
2017-09-21T11:39:49.392Z,101100.08
2017-09-21T11:40:55.618Z,101096.08
2017-09-21T11:42:01.803Z,101099.55
2017-09-21T11:43:12.406Z,101098.62
2017-09-21T11:44:18.679Z,101097.47
2017-09-21T11:45:24.754Z,101096.53
2017-09-21T11:46:30.954Z,101098.41
2017-09-21T11:47:37.285Z,101100.25
2017-09-21T11:48:43.461Z,101092.82
2017-09-21T11:49:49.712Z,101093.72
2017-09-21T11:50:55.946Z,101092.59
2017-09-21T11:52:10.496Z,101091.92
2017-09-21T11:53:21.368Z,101088.22
2017-09-21T11:54:27.638Z,101089.98
2017-09-21T11:55:33.799Z,101091.86
2017-09-21T11:56:40.209Z,101086.59
2017-09-21T11:57:46.572Z,101089.17
2017-09-21T11:58:53.403Z,101088.44
2017-09-21T12:00:00.327Z,101091.95
2017-09-21T12:01:06.763Z,101092.25
2017-09-21T12:02:13.212Z,101089.11
2017-09-21T12:03:19.479Z,101091.44
2017-09-21T12:04:25.752Z,101082.17
2017-09-21T12:05:31.903Z,101088.03
2017-09-21T12:06:38.104Z,101085.59
2017-09-21T12:07:44.249Z,101088.80
2017-09-21T12:08:51.530Z,101085.15
2017-09-21T12:09:57.530Z,101083.38
2017-09-21T12:11:04.081Z,101085.13
2017-09-21T12:12:16.015Z,101083.77
2017-09-21T12:13:27.515Z,101083.28
2017-09-21T12:14:34.384Z,101081.35
2017-09-21T12:15:40.392Z,101080.48
2017-09-21T12:16:46.433Z,101085.13
2017-09-21T12:17:53.507Z,101078.92
2017-09-21T12:18:59.395Z,101082.70
2017-09-21T12:20:05.479Z,101077.86
2017-09-21T12:21:11.570Z,101077.78
2017-09-21T12:22:17.742Z,101073.81
2017-09-21T12:23:23.880Z,101075.39
2017-09-21T12:24:30.035Z,101074.53
2017-09-21T12:25:36.133Z,101075.89
2017-09-21T12:26:42.210Z,101076.91
2017-09-21T12:27:49.174Z,101067.02
2017-09-21T12:28:55.254Z,101073.66
2017-09-21T12:30:02.508Z,101071.47
2017-09-21T12:31:12.582Z,101075.36
2017-09-21T12:32:18.730Z,101074.03
2017-09-21T12:33:25.743Z,101074.83
2017-09-21T12:34:32.614Z,101069.12
2017-09-21T12:35:39.029Z,101068.47
2017-09-21T12:36:45.046Z,101065.92
2017-09-21T12:37:52.036Z,101068.27
2017-09-21T12:38:58.911Z,101069.64
2017-09-21T12:40:05.056Z,101065.91
2017-09-21T12:41:11.288Z,101066.92
2017-09-21T12:42:17.702Z,101063.49
2017-09-21T12:43:24.037Z,101067.69
2017-09-21T12:44:31.244Z,101061.17
2017-09-21T12:45:37.486Z,101059.18
2017-09-21T12:46:43.614Z,101069.95
2017-09-21T12:47:49.710Z,101062.77
2017-09-21T12:48:57.327Z,101067.80
2017-09-21T12:50:06.379Z,101064.27
2017-09-21T12:51:14.724Z,101060.24
2017-09-21T12:52:22.805Z,101059.61
2017-09-21T12:53:31.130Z,101061.41
2017-09-21T12:54:39.452Z,101057.22
2017-09-21T12:55:48.674Z,101063.54
2017-09-21T12:56:57.078Z,101063.83
2017-09-21T12:58:06.526Z,101059.70
2017-09-21T12:59:14.612Z,101062.08
2017-09-21T13:00:23.340Z,101056.81
2017-09-21T13:01:31.989Z,101056.78
2017-09-21T13:02:41.182Z,101055.97
2017-09-21T13:03:50.173Z,101057.37
2017-09-21T13:04:58.938Z,101052.79
2017-09-21T13:06:07.957Z,101054.53
2017-09-21T13:07:16.146Z,101056.28
2017-09-21T13:08:24.530Z,101054.93
2017-09-21T13:09:34.043Z,101049.05
2017-09-21T13:10:44.991Z,101051.92
2017-09-21T13:11:53.531Z,101052.83
2017-09-21T13:13:01.952Z,101052.24
2017-09-21T13:14:10.274Z,101055.01
2017-09-21T13:15:19.163Z,101050.77
2017-09-21T13:16:27.960Z,101053.17
2017-09-21T13:17:36.440Z,101057.84
2017-09-21T13:18:44.685Z,101058.58
2017-09-21T13:19:54.324Z,101057.38
2017-09-21T13:21:03.296Z,101054.36
2017-09-21T13:22:11.747Z,101048.53
2017-09-21T13:23:20.077Z,101049.53
2017-09-21T13:24:28.050Z,101047.92
2017-09-21T13:25:37.182Z,101046.73
2017-09-21T13:26:46.340Z,101048.50
2017-09-21T13:27:55.032Z,101047.25
2017-09-21T13:29:03.197Z,101046.56
2017-09-21T13:30:11.965Z,101048.75
2017-09-21T13:31:19.952Z,101047.42
2017-09-21T13:32:27.776Z,101053.19
2017-09-21T13:33:36.487Z,101050.84
2017-09-21T13:34:44.808Z,101050.93
2017-09-21T13:35:53.586Z,101049.61
2017-09-21T13:37:02.933Z,101049.06
2017-09-21T13:38:11.031Z,101051.12
2017-09-21T13:39:20.022Z,101050.59
2017-09-21T13:40:28.442Z,101051.94
2017-09-21T13:41:36.776Z,101046.14
2017-09-21T13:42:45.438Z,101044.65
2017-09-21T13:43:54.967Z,101043.34
2017-09-21T13:45:03.124Z,101047.77
2017-09-21T13:46:12.215Z,101046.34
2017-09-21T13:47:20.547Z,101046.05
2017-09-21T13:48:28.951Z,101048.36
2017-09-21T13:49:37.319Z,101043.48
2017-09-21T13:50:46.510Z,101043.95
2017-09-21T13:51:55.633Z,101043.40
2017-09-21T13:53:05.109Z,101047.37
2017-09-21T13:54:13.550Z,101043.45
2017-09-21T13:55:22.877Z,101047.06
2017-09-21T13:56:32.027Z,101042.09
2017-09-21T13:57:40.685Z,101044.97
2017-09-21T13:58:50.467Z,101048.05
2017-09-21T13:59:59.535Z,101049.84
2017-09-21T14:01:08.055Z,101049.86
2017-09-21T14:02:16.320Z,101048.95
2017-09-21T14:03:26.069Z,101041.50
2017-09-21T14:04:35.701Z,101050.39
2017-09-21T14:05:43.655Z,101038.17
2017-09-21T14:06:52.016Z,101041.41
2017-09-21T14:08:01.271Z,101041.50
2017-09-21T14:09:10.114Z,101042.45
2017-09-21T14:10:19.332Z,101040.08
2017-09-21T14:11:27.607Z,101039.16
2017-09-21T14:12:36.516Z,101040.31
2017-09-21T14:13:45.119Z,101033.79
2017-09-21T14:14:53.606Z,101037.51
2017-09-21T14:16:02.477Z,101029.45
2017-09-21T14:17:10.645Z,101034.67
2017-09-21T14:18:19.050Z,101032.16
2017-09-21T14:19:27.895Z,101029.11
2017-09-21T14:20:36.865Z,101031.93
2017-09-21T14:21:45.063Z,101029.11
2017-09-21T14:22:54.398Z,101034.38
2017-09-21T14:24:02.899Z,101026.09
2017-09-21T14:25:11.555Z,101035.24
2017-09-21T14:26:21.364Z,101031.16
2017-09-21T14:27:30.241Z,101030.95
2017-09-21T14:28:38.596Z,101034.31
2017-09-21T14:29:46.697Z,101034.23
2017-09-21T14:30:55.629Z,101031.42
2017-09-21T14:32:06.110Z,101029.34
2017-09-21T14:33:15.565Z,101031.27
2017-09-21T14:34:24.422Z,101032.89
2017-09-21T14:35:33.296Z,101032.56
2017-09-21T14:36:42.215Z,101038.68
2017-09-21T14:37:51.002Z,101034.42
2017-09-21T14:39:00.731Z,101032.94
2017-09-21T14:40:09.029Z,101036.16
2017-09-21T14:41:17.671Z,101034.86
2017-09-21T14:42:26.777Z,101035.50
2017-09-21T14:43:35.150Z,101032.36
2017-09-21T14:44:43.473Z,101037.06
2017-09-21T14:45:51.822Z,101032.42
2017-09-21T14:47:00.565Z,101036.92
2017-09-21T14:48:08.407Z,101033.73
2017-09-21T14:49:16.577Z,101032.78
2017-09-21T14:50:25.225Z,101028.35
2017-09-21T14:51:34.489Z,101035.94
2017-09-21T14:52:43.207Z,101039.23
2017-09-21T14:53:51.991Z,101034.55
2017-09-21T14:55:00.189Z,101032.71
2017-09-21T14:56:10.073Z,101037.98
2017-09-21T14:57:18.283Z,101033.69
2017-09-21T14:58:26.690Z,101030.14
2017-09-21T14:59:35.932Z,101026.63
2017-09-21T15:00:44.911Z,101027.92
2017-09-21T15:01:53.949Z,101025.73
2017-09-21T15:03:04.286Z,101029.00
2017-09-21T15:04:13.458Z,101026.92
2017-09-21T15:05:22.766Z,101023.72
2017-09-21T15:06:31.600Z,101031.05
2017-09-21T15:07:40.755Z,101024.67
2017-09-21T15:08:48.782Z,101020.64
2017-09-21T15:09:57.331Z,101027.53
2017-09-21T15:11:05.669Z,101021.69
2017-09-21T15:12:15.619Z,101022.41
2017-09-21T15:13:24.858Z,101015.41
2017-09-21T15:14:34.463Z,101019.69
2017-09-21T15:15:43.377Z,101021.82
2017-09-21T15:16:52.032Z,101020.98
2017-09-21T15:18:00.748Z,101017.38
2017-09-21T15:19:09.655Z,101020.44
2017-09-21T15:20:18.782Z,101025.62
2017-09-21T15:21:27.852Z,101024.09
2017-09-21T15:22:37.051Z,101021.14
2017-09-21T15:23:45.940Z,101016.83
2017-09-21T15:24:54.760Z,101025.05
2017-09-21T15:26:03.152Z,101024.17
2017-09-21T15:27:11.744Z,101020.48
2017-09-21T15:28:20.123Z,101019.63
2017-09-21T15:29:29.625Z,101020.53
2017-09-21T15:30:38.480Z,101019.95
2017-09-21T15:31:47.409Z,101007.67
2017-09-21T15:32:56.322Z,101016.66
2017-09-21T15:34:05.736Z,101012.69
2017-09-21T15:35:15.887Z,101014.70
2017-09-21T15:36:24.171Z,101013.68
2017-09-21T15:37:33.484Z,101012.41
2017-09-21T15:38:42.941Z,101009.91
2017-09-21T15:39:52.630Z,101009.20
2017-09-21T15:41:03.590Z,101007.59
2017-09-21T15:42:14.161Z,101006.11
2017-09-21T15:43:24.781Z,101008.75
2017-09-21T15:44:33.792Z,101009.00
2017-09-21T15:45:42.183Z,101013.15
2017-09-21T15:46:51.045Z,101011.77
2017-09-21T15:48:01.858Z,101011.89
2017-09-21T15:49:11.583Z,101014.52
2017-09-21T15:50:21.015Z,101009.77
2017-09-21T15:51:31.620Z,101011.78
2017-09-21T15:52:40.068Z,101010.90
2017-09-21T15:53:49.480Z,101011.53
2017-09-21T15:54:58.307Z,101004.34
2017-09-21T15:56:08.325Z,101007.38
2017-09-21T15:57:17.832Z,101007.99
2017-09-21T15:58:27.392Z,101005.17
2017-09-21T15:59:34.287Z,101007.86
2017-09-21T16:00:41.342Z,101012.78
2017-09-21T16:01:48.390Z,101007.91
2017-09-21T16:02:55.823Z,101004.72
2017-09-21T16:04:02.054Z,101007.42
2017-09-21T16:05:08.236Z,101003.09
2017-09-21T16:06:15.256Z,101002.66
2017-09-21T16:07:21.519Z,101003.22
2017-09-21T16:08:27.789Z,101006.47
2017-09-21T16:09:35.028Z,101004.00
2017-09-21T16:10:40.885Z,101001.81